Suntar, Russia
Current Conditions -  °F | °C
As of 11:30 PM on Friday 24 Oct 2014 (Local Time) from UEEE Reporting Station
Clear Clear  
Wind Chill: -15°   Ceiling: Unl
Heat Index: -15°   Visibility: 6mi
Dew Point: -18°   Wind: 2mph
Humidity: 84%   Direction: 260°W
Pressure: 30.06"   Gusts: NA
Location:  62.16°N, 117.63°E
Report Text: UEEE 241430Z 26001MPS CAVOK M26/M28 Q1018 NOSIG RMK QFE75423490150
Loading
Personal Weather Stations






























Interactive Weather Map
Tropical Storm Tracking
New forecast layout! Learn more

10-Day Weather Forecast

Advertisements
Track Severe Weather on mobile